6CO1 weather

Public forecast

Using degrees Fahrenheit for public forecast. Weather courtesy of forecast.io.

Closest aviation weather report (METAR) to Burnham Field

Closest report is Northern Colorado Regional Airport, 20.2 nm (37.5 km) SSW. Retrieved 2020/08/13 12:56 UTC (59 minutes ago):

KFNL 131256Z AUTO 28003KT 10SM CLR 17/06 A3014 RMK AO2 SLP141 T01670056 PNO

Closest aviation forecast (TAF) to Burnham Field

Closest forecast is Cheyenne Regional Jerry Olson Field, 23.0 nm (42.5 km) NNE. Retrieved 2020/08/13 12:22 UTC (2 hours ago):

TAF KCYS 131120Z 1312/1412 27010KT P6SM SKC FM131700 28011G20KT P6SM FEW140 FM140100 24010KT P6SM SKC